createdAt,value
2019-04-14T00:01:10.828Z,57.84
2019-04-14T00:02:27.485Z,57.90
2019-04-14T00:03:41.084Z,57.88
2019-04-14T00:04:50.955Z,57.78
2019-04-14T00:06:06.992Z,57.82
2019-04-14T00:07:15.160Z,57.76
2019-04-14T00:08:24.100Z,57.76
2019-04-14T00:09:33.635Z,57.74
2019-04-14T00:10:42.239Z,57.70
2019-04-14T00:11:50.506Z,57.65
2019-04-14T00:12:59.970Z,57.74
2019-04-14T00:14:08.216Z,57.72
2019-04-14T00:15:24.471Z,57.72
2019-04-14T00:16:27.023Z,57.67
2019-04-14T00:17:35.500Z,57.66
2019-04-14T00:18:44.658Z,57.47
2019-04-14T00:19:52.901Z,57.53
2019-04-14T00:21:02.179Z,57.54
2019-04-14T00:22:11.578Z,57.51
2019-04-14T00:23:20.039Z,57.34
2019-04-14T00:24:29.101Z,57.38
2019-04-14T00:25:37.367Z,57.39
2019-04-14T00:26:46.691Z,57.49
2019-04-14T00:27:56.250Z,57.55
2019-04-14T00:29:06.685Z,57.58
2019-04-14T00:30:18.813Z,57.41
2019-04-14T00:31:28.543Z,57.42
2019-04-14T00:32:38.545Z,57.52
2019-04-14T00:33:47.570Z,57.53
2019-04-14T00:35:01.655Z,57.61
2019-04-14T00:36:11.582Z,57.30
2019-04-14T00:37:25.200Z,57.25
2019-04-14T00:38:35.188Z,57.36
2019-04-14T00:40:08.312Z,57.48
2019-04-14T00:41:18.457Z,57.54
2019-04-14T00:42:40.896Z,57.40
2019-04-14T00:43:50.819Z,57.40
2019-04-14T00:45:00.639Z,57.32
2019-04-14T00:46:13.240Z,57.35
2019-04-14T00:47:26.772Z,57.44
2019-04-14T00:48:36.502Z,57.51
2019-04-14T00:49:46.158Z,57.54
2019-04-14T00:50:54.236Z,57.54
2019-04-14T00:52:03.550Z,57.46
2019-04-14T00:53:12.071Z,57.41
2019-04-14T00:54:21.687Z,57.41
2019-04-14T00:55:29.737Z,57.42
2019-04-14T00:56:39.014Z,57.36
2019-04-14T00:57:47.159Z,57.32
2019-04-14T00:58:56.140Z,57.35
2019-04-14T01:00:06.277Z,57.44
2019-04-14T01:01:15.483Z,57.33
2019-04-14T01:02:23.925Z,57.29
2019-04-14T01:03:33.032Z,57.08
2019-04-14T01:04:42.645Z,57.16
2019-04-14T01:05:50.860Z,57.34
2019-04-14T01:07:00.135Z,57.45
2019-04-14T01:08:09.619Z,57.52
2019-04-14T01:09:19.401Z,57.55
2019-04-14T01:10:27.982Z,57.47
2019-04-14T01:11:36.014Z,57.38
2019-04-14T01:12:45.315Z,57.29
2019-04-14T01:13:54.829Z,57.35
2019-04-14T01:15:03.551Z,57.39
2019-04-14T01:16:18.388Z,57.23
2019-04-14T01:17:22.167Z,57.29
2019-04-14T01:18:31.941Z,57.27
2019-04-14T01:19:40.265Z,57.30
2019-04-14T01:20:51.323Z,57.27
2019-04-14T01:21:59.577Z,57.24
2019-04-14T01:23:08.457Z,57.30
2019-04-14T01:24:16.713Z,56.94
2019-04-14T01:25:26.075Z,57.10
2019-04-14T01:26:35.551Z,57.19
2019-04-14T01:27:45.033Z,57.24
2019-04-14T01:28:53.080Z,57.13
2019-04-14T01:30:02.556Z,57.17
2019-04-14T01:31:11.886Z,57.25
2019-04-14T01:32:20.338Z,57.27
2019-04-14T01:33:29.378Z,57.14
2019-04-14T01:34:39.051Z,57.19
2019-04-14T01:35:48.798Z,57.18
2019-04-14T01:36:58.450Z,57.03
2019-04-14T01:38:07.897Z,56.92
2019-04-14T01:39:17.549Z,56.98
2019-04-14T01:40:27.083Z,56.94
2019-04-14T01:41:35.348Z,56.95
2019-04-14T01:42:44.217Z,56.91
2019-04-14T01:43:52.473Z,56.57
2019-04-14T01:45:01.408Z,56.73
2019-04-14T01:46:16.097Z,56.93
2019-04-14T01:47:20.462Z,56.90
2019-04-14T01:48:28.972Z,56.94
2019-04-14T01:49:38.090Z,56.92
2019-04-14T01:50:47.963Z,56.98
2019-04-14T01:52:15.053Z,57.00
2019-04-14T01:53:31.503Z,56.78
2019-04-14T01:54:45.326Z,56.67
2019-04-14T01:55:57.726Z,56.61
2019-04-14T01:57:22.666Z,56.74
2019-04-14T01:58:33.906Z,56.61
2019-04-14T01:59:42.419Z,56.36
2019-04-14T02:00:55.406Z,56.36
2019-04-14T02:02:05.119Z,56.50
2019-04-14T02:03:13.388Z,56.70
2019-04-14T02:04:22.406Z,56.75
2019-04-14T02:05:53.939Z,56.69
2019-04-14T02:07:03.723Z,56.55
2019-04-14T02:08:13.457Z,56.26
2019-04-14T02:09:22.890Z,56.32
2019-04-14T02:10:32.587Z,56.41
2019-04-14T02:11:40.810Z,56.43
2019-04-14T02:12:49.608Z,56.40
2019-04-14T02:13:59.128Z,56.38
2019-04-14T02:15:09.424Z,56.30
2019-04-14T02:16:25.857Z,56.18
2019-04-14T02:17:28.407Z,56.18
2019-04-14T02:18:38.309Z,56.20
2019-04-14T02:19:48.001Z,56.09
2019-04-14T02:21:15.626Z,56.31
2019-04-14T02:22:24.534Z,56.36
2019-04-14T02:23:32.797Z,56.18
2019-04-14T02:24:41.729Z,56.35
2019-04-14T02:25:49.835Z,56.25
2019-04-14T02:26:59.029Z,56.13
2019-04-14T02:28:07.527Z,56.37
2019-04-14T02:29:16.827Z,56.06
2019-04-14T02:30:31.335Z,56.07
2019-04-14T02:32:01.422Z,55.90
2019-04-14T02:33:15.395Z,56.08
2019-04-14T02:34:25.590Z,56.23
2019-04-14T02:35:40.695Z,55.98
2019-04-14T02:36:47.987Z,55.66
2019-04-14T02:39:10.385Z,55.75
2019-04-14T02:40:20.558Z,55.83
2019-04-14T02:41:29.978Z,56.04
2019-04-14T02:42:46.327Z,56.12
2019-04-14T02:44:51.886Z,56.01
2019-04-14T02:46:05.963Z,56.21
2019-04-14T02:47:36.352Z,55.98
2019-04-14T02:48:36.146Z,55.98
2019-04-14T02:49:41.182Z,55.91
2019-04-14T02:50:43.730Z,55.87
2019-04-14T02:53:07.887Z,56.02
2019-04-14T02:54:13.483Z,55.85
2019-04-14T02:55:23.424Z,55.61
2019-04-14T02:57:49.301Z,54.99
2019-04-14T03:00:12.006Z,55.22
2019-04-14T03:03:37.274Z,54.95
2019-04-14T03:04:44.624Z,54.71
2019-04-14T03:06:12.575Z,55.05
2019-04-14T03:07:05.449Z,54.60
2019-04-14T03:08:18.313Z,54.83
2019-04-14T03:09:38.019Z,54.55
2019-04-14T03:10:40.456Z,54.64
2019-04-14T03:11:46.246Z,54.68
2019-04-14T03:13:01.935Z,54.74
2019-04-14T03:14:06.275Z,54.41
2019-04-14T03:15:17.028Z,54.49
2019-04-14T03:16:32.918Z,53.81
2019-04-14T03:17:36.790Z,54.51
2019-04-14T03:18:59.668Z,54.29
2019-04-14T03:20:20.731Z,53.52
2019-04-14T03:21:49.311Z,53.74
2019-04-14T03:24:09.356Z,53.71
2019-04-14T03:25:17.105Z,53.65
2019-04-14T03:26:33.763Z,54.19
2019-04-14T03:27:54.468Z,53.74
2019-04-14T03:28:56.680Z,53.97
2019-04-14T03:30:57.698Z,53.92
2019-04-14T03:32:02.355Z,53.72
2019-04-14T03:35:36.389Z,53.47
2019-04-14T03:37:15.666Z,53.48
2019-04-14T03:37:45.525Z,53.44
2019-04-14T03:38:50.326Z,52.90
2019-04-14T03:42:08.737Z,53.19
2019-04-14T03:44:34.804Z,52.31
2019-04-14T03:46:55.418Z,52.56
2019-04-14T03:51:39.912Z,53.35
2019-04-14T03:52:59.627Z,52.86
2019-04-14T03:53:45.785Z,53.30
2019-04-14T03:54:51.019Z,53.33
2019-04-14T03:55:58.418Z,52.81
2019-04-14T03:57:01.891Z,52.27
2019-04-14T03:58:11.495Z,52.14
2019-04-14T03:59:21.450Z,52.54
2019-04-14T04:00:31.310Z,52.62
2019-04-14T04:01:39.438Z,52.28
2019-04-14T04:02:48.802Z,52.18
2019-04-14T04:03:58.521Z,52.77
2019-04-14T04:05:08.545Z,52.59
2019-04-14T04:06:22.799Z,52.08
2019-04-14T04:07:32.182Z,51.89
2019-04-14T04:08:40.663Z,52.45
2019-04-14T04:09:50.382Z,52.24
2019-04-14T04:11:01.895Z,52.06
2019-04-14T04:12:10.293Z,51.99
2019-04-14T04:13:19.393Z,52.27
2019-04-14T04:14:27.795Z,51.84
2019-04-14T04:15:37.094Z,51.75
2019-04-14T04:16:57.205Z,51.91
2019-04-14T04:18:07.425Z,52.29
2019-04-14T04:19:19.377Z,52.31
2019-04-14T04:20:45.627Z,52.55
2019-04-14T04:22:12.895Z,52.12
2019-04-14T04:23:24.771Z,51.91
2019-04-14T04:24:47.579Z,51.45
2019-04-14T04:26:16.924Z,51.97
2019-04-14T04:27:44.019Z,51.65
2019-04-14T04:28:54.098Z,51.90
2019-04-14T04:30:23.048Z,51.52
2019-04-14T04:31:33.038Z,51.40
2019-04-14T04:32:57.948Z,51.52
2019-04-14T04:34:11.847Z,51.50
2019-04-14T04:35:34.726Z,52.01
2019-04-14T04:36:47.138Z,52.11
2019-04-14T04:37:57.050Z,51.16
2019-04-14T04:39:12.757Z,51.75
2019-04-14T04:40:23.044Z,51.62
2019-04-14T04:41:31.797Z,51.05
2019-04-14T04:42:41.539Z,51.35
2019-04-14T04:43:49.779Z,51.04
2019-04-14T04:44:57.824Z,51.03
2019-04-14T04:46:06.930Z,50.89
2019-04-14T04:47:14.985Z,50.67
2019-04-14T04:48:24.210Z,50.89
2019-04-14T04:49:32.915Z,51.44
2019-04-14T04:50:43.164Z,50.69
2019-04-14T04:51:51.504Z,51.01
2019-04-14T04:53:00.434Z,51.61
2019-04-14T04:54:10.237Z,51.70
2019-04-14T04:55:18.456Z,51.53
2019-04-14T04:56:27.547Z,51.11
2019-04-14T04:57:35.915Z,51.30
2019-04-14T04:58:45.580Z,50.81
2019-04-14T04:59:54.135Z,51.32
2019-04-14T05:01:03.490Z,50.71
2019-04-14T05:02:11.825Z,50.87
2019-04-14T05:03:21.135Z,50.74
2019-04-14T05:04:30.736Z,50.49
2019-04-14T05:06:23.789Z,50.84
2019-04-14T05:07:33.691Z,50.56
2019-04-14T05:08:57.001Z,50.47
2019-04-14T05:10:06.648Z,51.03
2019-04-14T05:11:20.907Z,50.65
2019-04-14T05:12:37.346Z,50.42
2019-04-14T05:13:47.224Z,50.37
2019-04-14T05:15:01.486Z,50.21
2019-04-14T05:16:10.708Z,50.86
2019-04-14T05:17:21.256Z,50.09
2019-04-14T05:18:29.781Z,49.99
2019-04-14T05:19:39.410Z,50.15
2019-04-14T05:20:48.773Z,50.06
2019-04-14T05:21:58.074Z,50.23
2019-04-14T05:23:07.965Z,50.79
2019-04-14T05:24:16.483Z,50.90
2019-04-14T05:25:25.415Z,50.69
2019-04-14T05:26:35.096Z,50.64
2019-04-14T05:27:43.548Z,50.77
2019-04-14T05:28:52.752Z,50.82
2019-04-14T05:30:02.579Z,50.75
2019-04-14T05:31:12.160Z,50.69
2019-04-14T05:32:21.602Z,50.87
2019-04-14T05:33:31.370Z,49.96
2019-04-14T05:34:41.152Z,49.94
2019-04-14T05:35:50.847Z,49.66
2019-04-14T05:37:00.643Z,50.67
2019-04-14T05:38:10.522Z,50.32
2019-04-14T05:39:19.886Z,49.85
2019-04-14T05:40:28.393Z,49.37
2019-04-14T05:41:39.601Z,49.27
2019-04-14T05:42:49.448Z,49.49
2019-04-14T05:44:01.197Z,49.35
2019-04-14T05:45:08.788Z,49.67
2019-04-14T05:46:18.545Z,49.69
2019-04-14T05:47:28.243Z,49.94
2019-04-14T05:48:37.997Z,49.91
2019-04-14T05:49:51.187Z,49.37
2019-04-14T05:50:57.730Z,49.39
2019-04-14T05:52:06.157Z,49.37
2019-04-14T05:53:15.390Z,49.34
2019-04-14T05:54:23.573Z,49.19
2019-04-14T05:55:32.762Z,50.02
2019-04-14T05:56:41.111Z,49.31
2019-04-14T05:57:50.241Z,49.97
2019-04-14T05:59:00.148Z,50.13
2019-04-14T06:00:12.488Z,49.75
2019-04-14T06:01:20.552Z,49.82
2019-04-14T06:02:31.024Z,49.90
2019-04-14T06:03:40.686Z,50.00
2019-04-14T06:04:50.320Z,49.72
2019-04-14T06:05:58.816Z,49.11
2019-04-14T06:07:07.263Z,49.90
2019-04-14T06:08:15.678Z,50.13
2019-04-14T06:09:24.939Z,49.85
2019-04-14T06:10:33.113Z,49.37
2019-04-14T06:11:41.242Z,49.40
2019-04-14T06:12:49.995Z,49.24
2019-04-14T06:13:58.722Z,48.38
2019-04-14T06:15:08.643Z,48.28
2019-04-14T06:16:17.133Z,48.59
2019-04-14T06:17:25.568Z,49.28
2019-04-14T06:18:33.804Z,48.81
2019-04-14T06:19:41.974Z,48.63
2019-04-14T06:20:50.318Z,48.22
2019-04-14T06:21:58.502Z,49.47
2019-04-14T06:23:06.602Z,49.02
2019-04-14T06:24:27.050Z,49.39
2019-04-14T06:25:36.439Z,49.24
2019-04-14T06:26:44.805Z,49.59
2019-04-14T06:27:52.809Z,49.18
2019-04-14T06:29:00.919Z,48.73
2019-04-14T06:30:27.253Z,49.22
2019-04-14T06:31:48.855Z,48.99
2019-04-14T06:32:58.480Z,48.56
2019-04-14T06:34:24.593Z,49.56
2019-04-14T06:35:34.330Z,49.45
2019-04-14T06:36:42.372Z,49.13
2019-04-14T06:37:54.156Z,48.78
2019-04-14T06:39:04.068Z,48.94
2019-04-14T06:40:12.113Z,49.37
2019-04-14T06:41:20.645Z,48.73
2019-04-14T06:42:29.239Z,49.15
2019-04-14T06:43:48.329Z,49.05
2019-04-14T06:44:47.616Z,49.08
2019-04-14T06:45:56.005Z,49.01
2019-04-14T06:47:05.124Z,48.95
2019-04-14T06:48:13.420Z,49.32
2019-04-14T06:49:21.732Z,49.10
2019-04-14T06:50:30.200Z,48.86
2019-04-14T06:51:38.206Z,48.53
2019-04-14T06:52:46.987Z,48.50
2019-04-14T06:53:55.110Z,48.41
2019-04-14T06:55:03.468Z,48.97
2019-04-14T06:56:11.684Z,48.14
2019-04-14T06:57:19.804Z,48.05
2019-04-14T06:58:28.241Z,48.18
2019-04-14T06:59:36.424Z,48.10
2019-04-14T07:00:44.745Z,48.29
2019-04-14T07:01:53.655Z,48.51
2019-04-14T07:03:01.989Z,48.72
2019-04-14T07:04:10.689Z,48.33
2019-04-14T07:05:18.739Z,47.94
2019-04-14T07:06:27.581Z,49.06
2019-04-14T07:07:35.897Z,48.25
2019-04-14T07:08:44.724Z,48.60
2019-04-14T07:09:52.854Z,48.00
2019-04-14T07:11:01.422Z,48.01
2019-04-14T07:12:09.727Z,47.90
2019-04-14T07:13:19.572Z,48.42
2019-04-14T07:14:31.666Z,48.57
2019-04-14T07:15:38.724Z,48.52
2019-04-14T07:16:47.328Z,48.27
2019-04-14T07:17:55.428Z,48.14
2019-04-14T07:19:03.904Z,48.39
2019-04-14T07:20:12.669Z,48.62
2019-04-14T07:21:20.942Z,48.31
2019-04-14T07:22:29.250Z,47.74
2019-04-14T07:23:37.859Z,48.17
2019-04-14T07:24:46.628Z,48.41
2019-04-14T07:25:55.072Z,48.51
2019-04-14T07:27:03.187Z,48.11
2019-04-14T07:28:11.573Z,48.01
2019-04-14T07:29:20.283Z,48.13
2019-04-14T07:30:29.983Z,48.02
2019-04-14T07:31:56.488Z,47.97
2019-04-14T07:33:06.311Z,48.04
2019-04-14T07:34:20.416Z,48.32
2019-04-14T07:35:39.761Z,48.44
2019-04-14T07:37:07.316Z,48.61
2019-04-14T07:38:17.175Z,48.56
2019-04-14T07:39:31.549Z,48.77
2019-04-14T07:40:50.693Z,48.26
2019-04-14T07:42:03.449Z,48.79
2019-04-14T07:43:13.535Z,48.89
2019-04-14T07:44:25.033Z,49.08
2019-04-14T07:45:51.343Z,48.72
2019-04-14T07:47:13.873Z,48.57
2019-04-14T07:48:24.032Z,49.06
2019-04-14T07:49:43.265Z,48.40
2019-04-14T07:50:51.678Z,48.52
2019-04-14T07:52:15.188Z,48.95
2019-04-14T07:53:28.645Z,48.63
2019-04-14T07:54:44.555Z,48.92
2019-04-14T07:56:01.527Z,48.90
2019-04-14T07:57:28.402Z,49.38
2019-04-14T07:58:41.085Z,48.76
2019-04-14T07:59:57.115Z,48.09
2019-04-14T08:01:09.990Z,48.46
2019-04-14T08:02:20.232Z,47.41
2019-04-14T08:03:47.160Z,46.77
2019-04-14T08:04:59.768Z,47.74
2019-04-14T08:06:07.998Z,46.86
2019-04-14T08:07:16.936Z,46.63
2019-04-14T08:08:26.023Z,46.39
2019-04-14T08:09:34.630Z,46.40
2019-04-14T08:10:43.307Z,47.54
2019-04-14T08:11:51.799Z,48.21
2019-04-14T08:13:00.736Z,47.52
2019-04-14T08:14:09.082Z,47.58
2019-04-14T08:15:17.477Z,47.05
2019-04-14T08:16:26.131Z,47.42
2019-04-14T08:17:34.874Z,46.47
2019-04-14T08:18:43.112Z,47.14
2019-04-14T08:19:51.488Z,46.22
2019-04-14T08:21:00.408Z,46.44
2019-04-14T08:22:08.656Z,46.84
2019-04-14T08:23:16.646Z,46.71
2019-04-14T08:24:25.262Z,47.19
2019-04-14T08:25:33.589Z,46.28
2019-04-14T08:26:41.914Z,45.76
2019-04-14T08:27:50.309Z,45.72
2019-04-14T08:28:58.527Z,45.74
2019-04-14T08:30:09.239Z,46.23
2019-04-14T08:31:17.350Z,46.67
2019-04-14T08:32:25.996Z,45.77
2019-04-14T08:33:34.790Z,46.62
2019-04-14T08:34:43.673Z,46.76
2019-04-14T08:35:51.888Z,46.66
2019-04-14T08:37:00.102Z,46.27
2019-04-14T08:38:08.737Z,45.97
2019-04-14T08:39:16.969Z,45.44
2019-04-14T08:40:25.402Z,45.55
2019-04-14T08:41:35.439Z,45.13
2019-04-14T08:43:00.500Z,44.74
2019-04-14T08:44:13.456Z,44.98
2019-04-14T08:45:39.569Z,45.29
2019-04-14T08:46:55.139Z,45.77
2019-04-14T08:48:21.159Z,45.62
2019-04-14T08:49:37.138Z,45.00
2019-04-14T08:50:59.065Z,45.18
2019-04-14T08:52:24.400Z,44.79
2019-04-14T08:53:40.064Z,45.09
2019-04-14T08:54:52.763Z,45.21
2019-04-14T08:56:09.854Z,45.33
2019-04-14T08:57:27.005Z,45.10
2019-04-14T08:58:36.740Z,45.49
2019-04-14T09:00:02.738Z,46.14
2019-04-14T09:01:12.744Z,45.75
2019-04-14T09:02:23.701Z,45.43
2019-04-14T09:03:34.917Z,44.91
2019-04-14T09:04:44.630Z,45.63
2019-04-14T09:05:55.493Z,46.27
2019-04-14T09:07:14.779Z,45.49
2019-04-14T09:08:34.087Z,44.71
2019-04-14T09:09:44.583Z,45.08
2019-04-14T09:10:55.027Z,45.43
2019-04-14T09:12:15.294Z,45.18
2019-04-14T09:13:17.314Z,44.57
2019-04-14T09:14:25.626Z,44.55
2019-04-14T09:15:34.392Z,45.16
2019-04-14T09:16:42.644Z,45.33
2019-04-14T09:17:51.041Z,45.37
2019-04-14T09:19:07.600Z,44.73
2019-04-14T09:20:09.898Z,44.13
2019-04-14T09:21:17.944Z,43.93
2019-04-14T09:22:26.241Z,44.24
2019-04-14T09:23:34.645Z,43.70
2019-04-14T09:24:43.243Z,44.16
2019-04-14T09:25:51.335Z,43.50
2019-04-14T09:26:59.761Z,44.06
2019-04-14T09:28:08.220Z,44.69
2019-04-14T09:29:16.426Z,43.97
2019-04-14T09:30:24.715Z,43.95
2019-04-14T09:31:33.021Z,44.69
2019-04-14T09:32:41.031Z,44.58
2019-04-14T09:33:49.321Z,44.64
2019-04-14T09:34:57.514Z,44.70
2019-04-14T09:36:06.349Z,44.13
2019-04-14T09:37:14.786Z,43.96
2019-04-14T09:38:23.198Z,43.76
2019-04-14T09:39:31.979Z,43.70
2019-04-14T09:40:40.329Z,43.60
2019-04-14T09:41:48.657Z,43.70
2019-04-14T09:42:57.794Z,44.00
2019-04-14T09:44:06.610Z,43.47
2019-04-14T09:45:15.014Z,44.09
2019-04-14T09:46:23.668Z,44.11
2019-04-14T09:47:31.849Z,44.46
2019-04-14T09:48:42.796Z,44.19
2019-04-14T09:49:50.016Z,43.58
2019-04-14T09:51:04.693Z,43.88
2019-04-14T09:52:08.122Z,43.09
2019-04-14T09:53:16.316Z,43.14
2019-04-14T09:54:24.911Z,43.32
2019-04-14T09:55:33.600Z,43.79
2019-04-14T09:56:42.254Z,43.31
2019-04-14T09:57:50.720Z,43.54
2019-04-14T09:58:59.000Z,43.12
2019-04-14T10:00:09.040Z,42.99
2019-04-14T10:01:17.208Z,43.05
2019-04-14T10:02:25.480Z,43.12
2019-04-14T10:03:35.631Z,43.07
2019-04-14T10:04:43.970Z,43.08
2019-04-14T10:05:52.626Z,42.72
2019-04-14T10:07:00.955Z,42.34
2019-04-14T10:08:09.521Z,42.84
2019-04-14T10:09:17.762Z,43.99
2019-04-14T10:10:26.066Z,42.52
2019-04-14T10:11:34.339Z,41.74
2019-04-14T10:12:42.649Z,41.75
2019-04-14T10:13:51.885Z,42.30
2019-04-14T10:15:00.483Z,42.49
2019-04-14T10:16:08.890Z,42.57
2019-04-14T10:17:17.629Z,41.70
2019-04-14T10:18:26.390Z,42.35
2019-04-14T10:19:35.075Z,41.70
2019-04-14T10:20:43.460Z,41.10
2019-04-14T10:21:51.730Z,40.40
2019-04-14T10:23:00.078Z,40.44
2019-04-14T10:24:08.740Z,40.70
2019-04-14T10:25:17.021Z,42.46
2019-04-14T10:26:25.622Z,41.62
2019-04-14T10:27:34.460Z,40.26
2019-04-14T10:28:42.888Z,41.51
2019-04-14T10:29:51.492Z,40.68
2019-04-14T10:31:00.463Z,40.59
2019-04-14T10:32:08.779Z,41.20
2019-04-14T10:33:17.346Z,38.97
2019-04-14T10:34:25.842Z,37.29
2019-04-14T10:35:33.884Z,37.81
2019-04-14T10:36:42.325Z,37.53
2019-04-14T10:37:50.703Z,38.65
2019-04-14T10:38:59.202Z,37.66
2019-04-14T10:40:08.128Z,39.10
2019-04-14T10:41:16.481Z,36.68
2019-04-14T10:42:25.542Z,36.69
2019-04-14T10:43:33.821Z,37.18
2019-04-14T10:44:41.941Z,37.36
2019-04-14T10:45:50.261Z,37.07
2019-04-14T10:46:58.586Z,36.54
2019-04-14T10:48:06.734Z,37.34
2019-04-14T10:49:14.750Z,36.98
2019-04-14T10:50:30.787Z,35.85
2019-04-14T10:51:34.140Z,38.46
2019-04-14T10:52:42.668Z,35.18
2019-04-14T10:53:50.792Z,34.90
2019-04-14T10:54:59.086Z,37.42
2019-04-14T10:56:07.940Z,36.10
2019-04-14T10:57:16.545Z,36.63
2019-04-14T10:58:25.041Z,35.59
2019-04-14T10:59:33.067Z,35.83
2019-04-14T11:00:41.961Z,36.41
2019-04-14T11:01:49.938Z,34.57
2019-04-14T11:02:57.938Z,35.17
2019-04-14T11:04:08.022Z,32.91
2019-04-14T11:05:15.868Z,33.92
2019-04-14T11:06:35.886Z,32.80
2019-04-14T11:07:43.832Z,33.71
2019-04-14T11:08:52.047Z,34.09
2019-04-14T11:10:00.225Z,32.24
2019-04-14T11:11:08.485Z,32.43
2019-04-14T11:12:16.614Z,33.90
2019-04-14T11:13:25.856Z,31.91
2019-04-14T11:14:35.046Z,32.80
2019-04-14T11:15:44.269Z,32.52
2019-04-14T11:16:52.171Z,32.20
2019-04-14T11:18:00.645Z,31.46
2019-04-14T11:19:09.530Z,33.02
2019-04-14T11:20:18.077Z,32.85
2019-04-14T11:21:26.929Z,33.71
2019-04-14T11:22:35.552Z,32.65
2019-04-14T11:23:43.792Z,34.73
2019-04-14T11:24:51.883Z,31.89
2019-04-14T11:26:00.185Z,32.10
2019-04-14T11:27:08.264Z,33.51
2019-04-14T11:28:16.486Z,31.23
2019-04-14T11:29:24.912Z,32.06
2019-04-14T11:30:33.502Z,31.68
2019-04-14T11:31:41.710Z,31.48
2019-04-14T11:33:00.926Z,31.41
2019-04-14T11:34:10.280Z,30.20
2019-04-14T11:35:20.961Z,28.79
2019-04-14T11:36:30.894Z,29.37
2019-04-14T11:37:48.418Z,30.18
2019-04-14T11:38:59.067Z,31.89
2019-04-14T11:40:09.787Z,30.12
2019-04-14T11:41:19.524Z,29.81
2019-04-14T11:42:27.868Z,32.35
2019-04-14T11:43:35.942Z,30.13
2019-04-14T11:44:44.691Z,29.18
2019-04-14T11:45:53.382Z,30.88
2019-04-14T11:47:04.877Z,30.05
2019-04-14T11:48:13.350Z,30.54
2019-04-14T11:49:21.475Z,31.20
2019-04-14T11:50:30.104Z,29.99
2019-04-14T11:51:38.775Z,28.57
2019-04-14T11:52:47.078Z,30.10
2019-04-14T11:53:55.167Z,32.09
2019-04-14T11:55:03.782Z,29.83
2019-04-14T11:56:12.326Z,31.21
2019-04-14T11:57:21.426Z,30.35
2019-04-14T11:58:29.627Z,28.72
2019-04-14T11:59:39.460Z,28.83
2019-04-14T12:00:47.792Z,28.84
2019-04-14T12:01:57.867Z,30.46
2019-04-14T12:03:07.729Z,29.69
2019-04-14T12:04:23.423Z,27.84
2019-04-14T12:05:45.988Z,29.08
2019-04-14T12:06:56.028Z,27.05
2019-04-14T12:08:08.477Z,26.57
2019-04-14T12:09:24.864Z,26.97
2019-04-14T12:10:33.130Z,26.64
2019-04-14T12:11:42.519Z,27.82
2019-04-14T12:12:51.082Z,30.75
2019-04-14T12:13:59.904Z,27.21
2019-04-14T12:15:16.190Z,30.45
2019-04-14T12:16:19.316Z,29.90
2019-04-14T12:17:27.904Z,28.17
2019-04-14T12:18:36.491Z,30.05
2019-04-14T12:19:44.507Z,28.42
2019-04-14T12:20:53.007Z,28.93
2019-04-14T12:22:08.166Z,27.72
2019-04-14T12:23:11.403Z,26.76
2019-04-14T12:24:20.147Z,27.78
2019-04-14T12:25:28.674Z,27.35
2019-04-14T12:26:36.964Z,28.56
2019-04-14T12:27:44.962Z,28.07
2019-04-14T12:28:53.723Z,27.59
2019-04-14T12:30:02.024Z,28.67
2019-04-14T12:31:11.151Z,29.43
2019-04-14T12:32:20.504Z,30.97
2019-04-14T12:33:28.678Z,31.41
2019-04-14T12:34:37.329Z,29.56
2019-04-14T12:35:45.457Z,28.22
2019-04-14T12:36:53.788Z,28.86
2019-04-14T12:38:02.088Z,28.04
2019-04-14T12:39:22.962Z,27.54
2019-04-14T12:40:31.462Z,29.68
2019-04-14T12:41:41.278Z,26.65
2019-04-14T12:42:56.908Z,28.28
2019-04-14T12:44:15.955Z,28.74
2019-04-14T12:45:44.116Z,28.04
2019-04-14T12:46:53.857Z,24.95
2019-04-14T12:48:16.844Z,26.63
2019-04-14T12:49:41.847Z,25.60
2019-04-14T12:50:51.789Z,29.54
2019-04-14T12:51:59.917Z,28.41
2019-04-14T12:53:08.402Z,27.42
2019-04-14T12:54:16.483Z,26.73
2019-04-14T12:55:24.860Z,26.76
2019-04-14T12:56:33.038Z,28.14
2019-04-14T12:57:48.665Z,25.25
2019-04-14T12:58:59.350Z,24.96
2019-04-14T13:00:45.008Z,25.04
2019-04-14T13:03:26.460Z,26.51
2019-04-14T13:04:34.986Z,26.84
2019-04-14T13:05:43.022Z,25.94
2019-04-14T13:06:51.185Z,24.25
2019-04-14T13:07:59.587Z,26.49
2019-04-14T13:09:08.510Z,27.58
2019-04-14T13:10:17.201Z,25.72
2019-04-14T13:11:25.303Z,28.57
2019-04-14T13:12:33.831Z,29.40
2019-04-14T13:13:42.262Z,30.71
2019-04-14T13:14:50.524Z,31.55
2019-04-14T13:15:59.482Z,31.08
2019-04-14T13:17:07.878Z,24.83
2019-04-14T13:18:16.379Z,24.22
2019-04-14T13:19:24.740Z,22.83
2019-04-14T13:20:33.177Z,24.69
2019-04-14T13:21:41.707Z,23.79
2019-04-14T13:22:50.143Z,24.50
2019-04-14T13:23:58.370Z,24.42
2019-04-14T13:25:07.388Z,24.83
2019-04-14T13:26:15.876Z,24.98
2019-04-14T13:27:24.164Z,25.27
2019-04-14T13:28:32.421Z,24.50
2019-04-14T13:29:40.829Z,24.85
2019-04-14T13:30:50.879Z,25.51
2019-04-14T13:31:59.142Z,25.00
2019-04-14T13:33:07.546Z,25.83
2019-04-14T13:34:16.467Z,23.71
2019-04-14T13:35:24.896Z,24.73
2019-04-14T13:36:33.482Z,23.26
2019-04-14T13:37:42.122Z,23.57
2019-04-14T13:38:50.611Z,23.72
2019-04-14T13:39:58.781Z,25.70
2019-04-14T13:41:06.926Z,24.16
2019-04-14T13:42:15.421Z,24.46
2019-04-14T13:43:23.635Z,23.80
2019-04-14T13:44:32.116Z,26.09
2019-04-14T13:45:40.657Z,24.15
2019-04-14T13:46:49.243Z,23.16
2019-04-14T13:47:57.336Z,23.07
2019-04-14T13:49:05.882Z,23.94
2019-04-14T13:50:14.299Z,23.25
2019-04-14T13:51:22.437Z,23.62
2019-04-14T13:52:31.248Z,23.81
2019-04-14T13:53:39.464Z,23.44
2019-04-14T13:54:47.874Z,24.54
2019-04-14T13:55:56.075Z,23.24
2019-04-14T13:57:04.576Z,24.42
2019-04-14T13:58:13.021Z,23.83
2019-04-14T13:59:21.486Z,24.54
2019-04-14T14:00:31.793Z,25.55
2019-04-14T14:01:40.131Z,24.94
2019-04-14T14:02:48.423Z,24.81
2019-04-14T14:03:56.811Z,25.17
2019-04-14T14:05:05.624Z,25.17
2019-04-14T14:06:13.780Z,23.94
2019-04-14T14:07:22.032Z,24.55
2019-04-14T14:08:30.591Z,22.87
2019-04-14T14:09:39.067Z,24.01
2019-04-14T14:10:47.349Z,23.72
2019-04-14T14:12:03.122Z,22.36
2019-04-14T14:13:28.342Z,22.27
2019-04-14T14:14:44.684Z,22.93
2019-04-14T14:16:10.996Z,22.65
2019-04-14T14:17:36.046Z,23.11
2019-04-14T14:18:45.670Z,23.59
2019-04-14T14:19:55.342Z,24.83
2019-04-14T14:21:07.686Z,23.86
2019-04-14T14:22:17.382Z,25.17
2019-04-14T14:23:37.658Z,23.18
2019-04-14T14:24:47.647Z,24.37
2019-04-14T14:25:57.179Z,23.95
2019-04-14T14:27:07.014Z,22.52
2019-04-14T14:28:15.810Z,22.87
2019-04-14T14:29:23.988Z,25.03
2019-04-14T14:30:32.154Z,25.41
2019-04-14T14:31:40.480Z,25.68
2019-04-14T14:32:48.930Z,25.44
2019-04-14T14:33:57.212Z,24.89
2019-04-14T14:35:06.925Z,25.31
2019-04-14T14:36:15.073Z,24.51
2019-04-14T14:37:23.233Z,24.14
2019-04-14T14:38:31.691Z,23.91
2019-04-14T14:39:39.860Z,22.67
2019-04-14T14:40:49.223Z,21.60
2019-04-14T14:41:57.649Z,22.00
2019-04-14T14:43:06.070Z,23.58
2019-04-14T14:44:14.363Z,21.96
2019-04-14T14:45:39.149Z,24.26
2019-04-14T14:46:50.046Z,25.17
2019-04-14T14:47:59.796Z,23.77
2019-04-14T14:49:09.627Z,24.97
2019-04-14T14:50:22.507Z,24.26
2019-04-14T14:51:31.979Z,22.60
2019-04-14T14:52:51.763Z,23.21
2019-04-14T14:53:59.952Z,24.01
2019-04-14T14:55:17.230Z,23.58
2019-04-14T14:56:29.079Z,23.91
2019-04-14T14:57:43.551Z,23.64
2019-04-14T14:58:56.129Z,23.26
2019-04-14T15:00:10.039Z,23.79
2019-04-14T15:01:23.152Z,23.02
2019-04-14T15:02:37.362Z,24.10
2019-04-14T15:03:51.078Z,22.26
2019-04-14T15:05:06.551Z,23.15
2019-04-14T15:06:18.186Z,23.63
2019-04-14T15:07:34.143Z,23.70
2019-04-14T15:08:52.073Z,24.09
2019-04-14T15:10:04.596Z,22.37
2019-04-14T15:11:15.474Z,22.39
2019-04-14T15:12:25.291Z,23.33
2019-04-14T15:13:33.811Z,22.43
2019-04-14T15:14:41.980Z,23.73
2019-04-14T15:15:50.623Z,22.05
2019-04-14T15:16:58.735Z,22.51
2019-04-14T15:18:07.090Z,23.34
2019-04-14T15:19:15.360Z,23.12
2019-04-14T15:20:23.622Z,22.46
2019-04-14T15:21:32.070Z,23.10
2019-04-14T15:22:40.313Z,23.72
2019-04-14T15:23:48.857Z,22.50
2019-04-14T15:24:56.901Z,22.31
2019-04-14T15:26:05.028Z,22.04
2019-04-14T15:27:13.138Z,23.04
2019-04-14T15:28:21.702Z,23.38
2019-04-14T15:29:29.968Z,22.43
2019-04-14T15:30:38.615Z,23.29
2019-04-14T15:31:47.224Z,23.01